createdAt,value
2023-04-19T00:02:21.726Z,102947.59
2023-04-19T00:04:48.791Z,102958.19
2023-04-19T00:07:17.116Z,102953.22
2023-04-19T00:09:44.089Z,102956.84
2023-04-19T00:12:10.923Z,102956.47
2023-04-19T00:14:37.842Z,102948.31
2023-04-19T00:17:04.871Z,102952.34
2023-04-19T00:19:31.705Z,102948.13
2023-04-19T00:21:58.535Z,102952.75
2023-04-19T00:24:25.365Z,102953.19
2023-04-19T00:26:52.145Z,102951.81
2023-04-19T00:29:18.931Z,102954.03
2023-04-19T00:31:45.722Z,102950.25
2023-04-19T00:34:13.575Z,102955.91
2023-04-19T00:36:41.082Z,102949.31
2023-04-19T00:39:08.036Z,102943.75
2023-04-19T00:41:34.919Z,102947.34
2023-04-19T00:44:01.673Z,102944.59
2023-04-19T00:46:28.812Z,102936.19
2023-04-19T00:48:56.020Z,102930.63
2023-04-19T00:51:23.524Z,102928.66
2023-04-19T00:53:50.549Z,102933.47
2023-04-19T00:56:19.211Z,102932.69
2023-04-19T00:58:46.299Z,102940.69
2023-04-19T01:01:13.122Z,102933.09
2023-04-19T01:03:40.507Z,102924.34
2023-04-19T01:06:07.664Z,102918.34
2023-04-19T01:08:34.409Z,102925.56
2023-04-19T01:11:01.280Z,102916.19
2023-04-19T01:13:28.183Z,102919.56
2023-04-19T01:15:56.068Z,102921.97
2023-04-19T01:18:24.569Z,102923.13
2023-04-19T01:20:52.045Z,102921.31
2023-04-19T01:23:18.944Z,102923.50
2023-04-19T01:25:46.398Z,102925.88
2023-04-19T01:28:13.252Z,102924.91
2023-04-19T01:30:40.138Z,102915.88
2023-04-19T01:33:06.960Z,102917.44
2023-04-19T01:35:34.096Z,102922.25
2023-04-19T01:38:01.247Z,102923.59
2023-04-19T01:40:28.162Z,102928.97
2023-04-19T01:42:54.966Z,102924.16
2023-04-19T01:45:21.824Z,102915.34
2023-04-19T01:47:48.617Z,102923.31
2023-04-19T01:50:15.461Z,102919.47
2023-04-19T01:52:42.206Z,102921.63
2023-04-19T01:55:09.473Z,102920.19
2023-04-19T01:57:36.207Z,102916.41
2023-04-19T02:00:03.384Z,102919.59
2023-04-19T02:02:30.421Z,102921.97
2023-04-19T02:04:58.081Z,102920.53
2023-04-19T02:07:24.899Z,102917.50
2023-04-19T02:09:51.727Z,102919.09
2023-04-19T02:12:18.540Z,102912.44
2023-04-19T02:14:45.426Z,102920.59
2023-04-19T02:17:12.524Z,102915.75
2023-04-19T02:19:39.348Z,102921.56
2023-04-19T02:22:06.164Z,102922.94
2023-04-19T02:24:32.973Z,102916.50
2023-04-19T02:26:59.754Z,102914.50
2023-04-19T02:29:26.582Z,102919.25
2023-04-19T02:31:53.475Z,102917.22
2023-04-19T02:34:20.385Z,102916.22
2023-04-19T02:36:47.140Z,102918.38
2023-04-19T02:39:13.960Z,102920.56
2023-04-19T02:41:41.745Z,102921.56
2023-04-19T02:44:08.863Z,102926.34
2023-04-19T02:46:35.794Z,102923.53
2023-04-19T02:49:02.705Z,102919.69
2023-04-19T02:51:29.711Z,102921.50
2023-04-19T02:53:56.462Z,102918.69
2023-04-19T02:56:23.266Z,102916.88
2023-04-19T02:58:50.048Z,102914.66
2023-04-19T03:01:16.899Z,102918.81
2023-04-19T03:03:43.806Z,102917.81
2023-04-19T03:06:10.717Z,102916.00
2023-04-19T03:08:37.581Z,102918.41
2023-04-19T03:11:04.486Z,102914.78
2023-04-19T03:13:31.343Z,102914.56
2023-04-19T03:15:58.191Z,102915.34
2023-04-19T03:18:25.014Z,102921.34
2023-04-19T03:20:51.794Z,102914.94
2023-04-19T03:23:18.560Z,102916.72
2023-04-19T03:25:46.142Z,102905.88
2023-04-19T03:28:12.934Z,102908.25
2023-04-19T03:30:39.710Z,102914.06
2023-04-19T03:33:07.024Z,102911.44
2023-04-19T03:35:33.878Z,102903.38
2023-04-19T03:38:00.775Z,102904.19
2023-04-19T03:40:27.727Z,102908.38
2023-04-19T03:42:54.486Z,102899.78
2023-04-19T03:45:21.407Z,102913.59
2023-04-19T03:47:48.195Z,102906.81
2023-04-19T03:50:15.078Z,102907.81
2023-04-19T03:52:41.866Z,102908.47
2023-04-19T03:55:09.528Z,102910.13
2023-04-19T03:57:36.334Z,102895.38
2023-04-19T04:00:07.251Z,102908.03
2023-04-19T04:02:34.324Z,102898.50
2023-04-19T04:05:01.435Z,102902.34
2023-04-19T04:07:28.542Z,102903.00
2023-04-19T04:09:55.617Z,102900.03
2023-04-19T04:12:22.398Z,102906.22
2023-04-19T04:14:49.218Z,102902.03
2023-04-19T04:17:16.084Z,102909.84
2023-04-19T04:19:42.884Z,102894.66
2023-04-19T04:22:09.702Z,102900.31
2023-04-19T04:24:41.613Z,102900.94
2023-04-19T04:27:10.278Z,102918.81
2023-04-19T04:29:37.681Z,102920.25
2023-04-19T04:32:11.302Z,102914.69
2023-04-19T04:34:40.754Z,102913.31
2023-04-19T04:37:08.974Z,102915.53
2023-04-19T04:39:39.366Z,102915.16
2023-04-19T04:42:09.124Z,102917.19
2023-04-19T04:44:39.205Z,102914.41
2023-04-19T04:47:06.045Z,102912.06
2023-04-19T04:49:32.875Z,102909.84
2023-04-19T04:52:00.268Z,102911.88
2023-04-19T04:54:27.051Z,102914.91
2023-04-19T04:56:53.842Z,102916.72
2023-04-19T04:59:20.680Z,102911.75
2023-04-19T05:01:47.686Z,102919.75
2023-04-19T05:04:14.759Z,102924.16
2023-04-19T05:06:41.798Z,102916.22
2023-04-19T05:09:08.561Z,102917.22
2023-04-19T05:11:35.370Z,102918.59
2023-04-19T05:14:03.195Z,102917.22
2023-04-19T05:16:30.186Z,102914.69
2023-04-19T05:18:56.982Z,102920.16
2023-04-19T05:21:23.830Z,102922.09
2023-04-19T05:23:53.661Z,102915.41
2023-04-19T05:26:20.758Z,102925.56
2023-04-19T05:28:47.661Z,102920.44
2023-04-19T05:31:14.681Z,102919.97
2023-04-19T05:33:41.742Z,102923.59
2023-04-19T05:36:08.998Z,102925.19
2023-04-19T05:38:35.987Z,102929.94
2023-04-19T05:41:04.243Z,102922.66
2023-04-19T05:43:31.366Z,102925.38
2023-04-19T05:45:58.447Z,102926.19
2023-04-19T05:48:25.751Z,102936.97
2023-04-19T05:50:57.547Z,102926.22
2023-04-19T05:53:24.320Z,102913.22
2023-04-19T05:55:52.345Z,102921.75
2023-04-19T05:58:19.442Z,102926.19
2023-04-19T06:00:46.772Z,102935.25
2023-04-19T06:03:14.248Z,102934.59
2023-04-19T06:05:41.681Z,102928.34
2023-04-19T06:08:09.689Z,102933.84
2023-04-19T06:10:51.758Z,102941.47
2023-04-19T06:13:21.159Z,102936.16
2023-04-19T06:15:48.538Z,102926.72
2023-04-19T06:18:21.315Z,102933.09
2023-04-19T06:20:48.379Z,102934.22
2023-04-19T06:23:15.561Z,102936.72
2023-04-19T06:25:42.833Z,102940.50
2023-04-19T06:28:09.748Z,102935.72
2023-04-19T06:30:36.775Z,102940.53
2023-04-19T06:33:03.722Z,102934.59
2023-04-19T06:35:31.951Z,102934.00
2023-04-19T06:38:01.508Z,102935.53
2023-04-19T06:40:29.537Z,102935.47
2023-04-19T06:42:56.416Z,102933.88
2023-04-19T06:45:23.524Z,102933.94
2023-04-19T06:47:50.481Z,102926.50
2023-04-19T06:50:17.520Z,102934.78
2023-04-19T06:52:44.367Z,102934.03
2023-04-19T06:55:11.878Z,102931.19
2023-04-19T06:57:38.838Z,102936.88
2023-04-19T07:00:06.960Z,102939.19
2023-04-19T07:02:34.141Z,102932.88
2023-04-19T07:05:01.124Z,102936.41
2023-04-19T07:07:28.187Z,102939.22
2023-04-19T07:09:55.158Z,102929.31
2023-04-19T07:12:21.986Z,102936.19
2023-04-19T07:14:48.843Z,102931.06
2023-04-19T07:17:15.596Z,102942.06
2023-04-19T07:19:42.644Z,102940.88
2023-04-19T07:22:09.511Z,102942.06
2023-04-19T07:24:36.333Z,102937.66
2023-04-19T07:27:03.161Z,102944.72
2023-04-19T07:29:29.979Z,102939.41
2023-04-19T07:31:56.972Z,102936.34
2023-04-19T07:34:24.128Z,102938.63
2023-04-19T07:36:50.914Z,102946.72
2023-04-19T07:39:17.838Z,102936.69
2023-04-19T07:41:45.636Z,102947.97
2023-04-19T07:44:13.791Z,102934.34
2023-04-19T07:46:46.890Z,102930.53
2023-04-19T07:49:13.997Z,102946.22
2023-04-19T07:51:40.704Z,102932.59
2023-04-19T07:54:07.607Z,102951.63
2023-04-19T07:56:34.660Z,102947.88
2023-04-19T07:59:08.372Z,102955.84
2023-04-19T08:01:37.157Z,102947.28
2023-04-19T08:04:04.573Z,102954.25
2023-04-19T08:06:32.691Z,102944.00
2023-04-19T08:08:59.606Z,102958.50
2023-04-19T08:11:26.471Z,102944.22
2023-04-19T08:14:04.431Z,102943.63
2023-04-19T08:19:06.358Z,102938.25
2023-04-19T08:21:40.434Z,102948.22
2023-04-19T08:24:08.596Z,102931.81
2023-04-19T08:26:35.900Z,102950.41
2023-04-19T08:29:02.785Z,102934.78
2023-04-19T08:31:29.677Z,102938.06
2023-04-19T08:33:57.278Z,102945.28
2023-04-19T08:36:37.014Z,102945.06
2023-04-19T08:39:14.697Z,102936.97
2023-04-19T08:41:48.168Z,102930.50
2023-04-19T08:44:28.677Z,102925.84
2023-04-19T08:47:02.604Z,102923.31
2023-04-19T08:49:29.880Z,102933.56
2023-04-19T08:52:01.581Z,102937.06
2023-04-19T08:54:31.802Z,102930.56
2023-04-19T08:56:59.304Z,102927.69
2023-04-19T08:59:26.499Z,102923.47
2023-04-19T09:01:54.542Z,102922.38
2023-04-19T09:04:34.723Z,102930.31
2023-04-19T09:07:03.614Z,102919.81
2023-04-19T09:09:37.051Z,102928.91
2023-04-19T09:12:20.561Z,102924.69
2023-04-19T09:17:18.064Z,102928.41
2023-04-19T09:19:50.927Z,102927.88
2023-04-19T09:22:18.826Z,102916.50
2023-04-19T09:25:27.699Z,102914.91
2023-04-19T09:27:36.632Z,102914.16
2023-04-19T09:30:05.003Z,102917.59
2023-04-19T09:32:47.345Z,102916.84
2023-04-19T09:35:14.703Z,102921.75
2023-04-19T09:40:28.236Z,102911.63
2023-04-19T09:43:08.855Z,102913.84
2023-04-19T09:45:44.889Z,102904.56
2023-04-19T09:48:13.163Z,102898.31
2023-04-19T09:51:02.651Z,102904.38
2023-04-19T09:53:34.764Z,102899.81
2023-04-19T09:56:03.471Z,102914.50
2023-04-19T09:58:42.632Z,102904.06
2023-04-19T10:01:19.179Z,102900.66
2023-04-19T10:03:49.909Z,102907.25
2023-04-19T10:08:51.228Z,102900.97
2023-04-19T10:11:22.055Z,102888.34
2023-04-19T10:13:53.259Z,102887.06
2023-04-19T10:16:20.804Z,102884.72
2023-04-19T10:18:50.543Z,102890.25
2023-04-19T10:21:19.513Z,102886.53
2023-04-19T10:23:47.244Z,102884.69
2023-04-19T10:26:14.116Z,102883.13
2023-04-19T10:28:42.671Z,102890.50
2023-04-19T10:31:13.815Z,102873.66
2023-04-19T10:33:41.821Z,102871.00
2023-04-19T10:36:10.711Z,102874.22
2023-04-19T10:38:44.709Z,102873.97
2023-04-19T10:41:14.375Z,102881.84
2023-04-19T10:43:55.496Z,102875.81
2023-04-19T10:46:22.570Z,102868.69
2023-04-19T10:48:59.633Z,102879.47
2023-04-19T10:51:28.221Z,102873.16
2023-04-19T10:54:09.130Z,102867.09
2023-04-19T10:56:35.982Z,102869.47
2023-04-19T10:59:08.498Z,102863.94
2023-04-19T11:01:46.150Z,102864.16
2023-04-19T11:04:21.896Z,102861.53
2023-04-19T11:06:54.474Z,102865.41
2023-04-19T11:09:34.633Z,102850.59
2023-04-19T11:12:13.308Z,102851.34
2023-04-19T11:14:43.420Z,102847.63
2023-04-19T11:17:27.920Z,102843.47
2023-04-19T11:19:57.094Z,102841.88
2023-04-19T11:22:31.530Z,102837.66
2023-04-19T11:25:25.199Z,102827.09
2023-04-19T11:27:53.497Z,102824.34
2023-04-19T11:30:23.074Z,102806.41
2023-04-19T11:32:52.969Z,102816.16
2023-04-19T11:35:25.040Z,102808.44
2023-04-19T11:37:53.414Z,102808.00
2023-04-19T11:40:22.058Z,102791.16
2023-04-19T11:42:56.226Z,102815.22
2023-04-19T11:45:32.030Z,102803.63
2023-04-19T11:48:01.789Z,102806.53
2023-04-19T11:50:33.575Z,102789.81
2023-04-19T11:53:09.702Z,102786.28
2023-04-19T11:55:36.941Z,102776.69
2023-04-19T11:58:06.539Z,102786.59
2023-04-19T12:00:33.597Z,102780.03
2023-04-19T12:03:00.772Z,102786.81
2023-04-19T12:05:28.241Z,102780.97
2023-04-19T12:08:08.727Z,102777.06
2023-04-19T12:10:36.531Z,102779.09
2023-04-19T12:13:18.780Z,102780.41
2023-04-19T12:15:46.788Z,102779.84
2023-04-19T12:18:14.581Z,102790.63
2023-04-19T12:20:49.842Z,102776.41
2023-04-19T12:23:19.946Z,102783.88
2023-04-19T12:25:48.731Z,102775.03
2023-04-19T12:28:16.205Z,102764.06
2023-04-19T12:30:44.138Z,102756.09
2023-04-19T12:33:11.788Z,102754.34
2023-04-19T12:35:39.353Z,102769.69
2023-04-19T12:38:06.406Z,102762.81
2023-04-19T12:40:33.685Z,102753.69
2023-04-19T12:43:00.536Z,102756.03
2023-04-19T12:45:27.928Z,102751.78
2023-04-19T12:47:54.850Z,102734.56
2023-04-19T12:50:21.966Z,102744.25
2023-04-19T12:52:49.110Z,102741.47
2023-04-19T12:55:16.313Z,102743.00
2023-04-19T12:57:43.480Z,102739.44
2023-04-19T13:00:11.335Z,102737.53
2023-04-19T13:02:38.933Z,102727.00
2023-04-19T13:05:06.674Z,102744.88
2023-04-19T13:07:33.638Z,102727.72
2023-04-19T13:10:00.801Z,102720.03
2023-04-19T13:12:28.485Z,102714.84
2023-04-19T13:14:55.505Z,102702.63
2023-04-19T13:17:22.514Z,102712.69
2023-04-19T13:19:49.635Z,102693.81
2023-04-19T13:22:16.791Z,102694.75
2023-04-19T13:24:43.617Z,102689.06
2023-04-19T13:27:10.544Z,102693.78
2023-04-19T13:29:37.583Z,102692.75
2023-04-19T13:32:07.820Z,102684.66
2023-04-19T13:34:36.224Z,102673.50
2023-04-19T13:37:03.182Z,102672.38
2023-04-19T13:39:30.179Z,102670.31
2023-04-19T13:41:57.228Z,102667.16
2023-04-19T13:44:25.453Z,102660.91
2023-04-19T13:46:52.493Z,102667.03
2023-04-19T13:49:19.617Z,102650.72
2023-04-19T13:51:50.620Z,102660.06
2023-04-19T13:54:19.794Z,102657.50
2023-04-19T13:56:49.817Z,102644.34
2023-04-19T13:59:18.713Z,102641.44
2023-04-19T14:01:45.637Z,102638.50
2023-04-19T14:04:12.822Z,102633.50
2023-04-19T14:06:39.937Z,102626.22
2023-04-19T14:09:06.962Z,102629.28
2023-04-19T14:11:34.550Z,102628.34
2023-04-19T14:14:01.447Z,102614.56
2023-04-19T14:16:28.346Z,102622.22
2023-04-19T14:18:55.465Z,102612.34
2023-04-19T14:21:22.330Z,102618.34
2023-04-19T14:23:49.294Z,102604.16
2023-04-19T14:26:16.415Z,102599.44
2023-04-19T14:28:43.322Z,102595.13
2023-04-19T14:31:10.463Z,102595.81
2023-04-19T14:33:37.405Z,102598.16
2023-04-19T14:36:04.778Z,102592.09
2023-04-19T14:38:31.982Z,102585.53
2023-04-19T14:40:58.830Z,102576.66
2023-04-19T14:43:26.270Z,102587.44
2023-04-19T14:45:53.435Z,102584.00
2023-04-19T14:48:22.228Z,102577.78
2023-04-19T14:50:49.455Z,102572.94
2023-04-19T14:53:16.382Z,102577.63
2023-04-19T14:55:43.280Z,102576.31
2023-04-19T14:58:10.118Z,102569.78
2023-04-19T15:00:37.111Z,102567.66
2023-04-19T15:03:04.207Z,102565.81
2023-04-19T15:05:36.489Z,102565.13
2023-04-19T15:08:03.779Z,102561.03
2023-04-19T15:10:31.038Z,102560.03
2023-04-19T15:12:58.255Z,102552.75
2023-04-19T15:15:25.336Z,102551.72
2023-04-19T15:17:52.350Z,102550.22
2023-04-19T15:20:19.631Z,102549.25
2023-04-19T15:22:46.649Z,102569.38
2023-04-19T15:25:13.747Z,102554.66
2023-04-19T15:27:40.837Z,102548.69
2023-04-19T15:30:08.249Z,102553.69
2023-04-19T15:32:37.004Z,102545.53
2023-04-19T15:35:04.161Z,102543.16
2023-04-19T15:37:31.142Z,102550.03
2023-04-19T15:39:57.965Z,102541.63
2023-04-19T15:42:24.840Z,102541.91
2023-04-19T15:44:51.997Z,102533.78
2023-04-19T15:47:18.969Z,102531.16
2023-04-19T15:49:47.566Z,102532.22
2023-04-19T15:52:14.509Z,102523.81
2023-04-19T15:54:41.558Z,102522.25
2023-04-19T15:57:08.437Z,102536.44
2023-04-19T15:59:35.377Z,102523.84
2023-04-19T16:02:02.515Z,102527.81
2023-04-19T16:04:30.791Z,102535.97
2023-04-19T16:06:57.809Z,102522.34
2023-04-19T16:09:24.841Z,102529.44
2023-04-19T16:11:51.800Z,102524.19
2023-04-19T16:14:18.892Z,102521.06
2023-04-19T16:16:45.949Z,102513.44
2023-04-19T16:19:12.761Z,102529.75
2023-04-19T16:21:39.789Z,102520.00
2023-04-19T16:24:07.160Z,102512.13
2023-04-19T16:26:34.230Z,102508.72
2023-04-19T16:29:01.441Z,102530.81
2023-04-19T16:31:28.637Z,102526.09
2023-04-19T16:33:55.821Z,102526.91
2023-04-19T16:36:22.710Z,102523.50
2023-04-19T16:38:49.625Z,102529.78
2023-04-19T16:41:16.529Z,102525.59
2023-04-19T16:43:43.588Z,102519.31
2023-04-19T16:46:11.229Z,102519.56
2023-04-19T16:48:38.187Z,102515.09
2023-04-19T16:51:05.186Z,102517.47
2023-04-19T16:53:32.355Z,102516.41
2023-04-19T16:56:00.466Z,102511.44
2023-04-19T16:58:27.426Z,102504.63
2023-04-19T17:00:54.249Z,102508.84
2023-04-19T17:03:22.090Z,102510.91
2023-04-19T17:05:49.104Z,102509.09
2023-04-19T17:08:16.023Z,102508.28
2023-04-19T17:10:42.866Z,102507.72
2023-04-19T17:13:09.786Z,102502.50
2023-04-19T17:15:38.447Z,102503.28
2023-04-19T17:18:05.865Z,102498.53
2023-04-19T17:20:33.008Z,102503.53
2023-04-19T17:22:59.937Z,102500.91
2023-04-19T17:25:26.894Z,102503.50
2023-04-19T17:27:53.854Z,102497.47
2023-04-19T17:30:21.055Z,102494.59
2023-04-19T17:32:48.027Z,102493.78
2023-04-19T17:35:15.918Z,102495.06
2023-04-19T17:37:43.880Z,102492.72
2023-04-19T17:40:11.218Z,102496.13
2023-04-19T17:42:38.247Z,102506.34
2023-04-19T17:45:10.888Z,102503.19
2023-04-19T17:47:38.946Z,102492.41
2023-04-19T17:50:13.663Z,102494.47
2023-04-19T17:52:40.634Z,102489.22
2023-04-19T17:55:08.162Z,102493.91
2023-04-19T17:57:35.780Z,102492.31
2023-04-19T18:00:06.866Z,102491.50
2023-04-19T18:02:34.721Z,102494.34
2023-04-19T18:05:02.116Z,102495.38
2023-04-19T18:07:29.508Z,102487.47
2023-04-19T18:09:56.465Z,102490.88
2023-04-19T18:12:23.631Z,102501.06
2023-04-19T18:14:50.559Z,102488.97
2023-04-19T18:17:17.498Z,102501.00
2023-04-19T18:19:44.428Z,102496.22
2023-04-19T18:22:11.488Z,102510.31
2023-04-19T18:24:40.900Z,102498.47
2023-04-19T18:27:07.812Z,102506.03
2023-04-19T18:29:34.641Z,102509.13
2023-04-19T18:32:01.565Z,102513.03
2023-04-19T18:34:28.462Z,102510.38
2023-04-19T18:36:59.404Z,102514.25
2023-04-19T18:39:26.418Z,102517.88
2023-04-19T18:41:53.317Z,102520.97
2023-04-19T18:44:44.306Z,102521.19
2023-04-19T18:47:07.124Z,102524.00
2023-04-19T18:49:34.285Z,102522.38
2023-04-19T18:52:01.160Z,102522.03
2023-04-19T18:54:28.042Z,102519.34
2023-04-19T18:59:25.147Z,102533.91
2023-04-19T19:01:52.717Z,102539.34
2023-04-19T19:04:43.046Z,102541.34
2023-04-19T19:07:22.979Z,102542.25
2023-04-19T19:09:56.714Z,102543.75
2023-04-19T19:12:24.083Z,102545.78
2023-04-19T19:14:51.565Z,102548.81
2023-04-19T19:17:18.595Z,102547.19
2023-04-19T19:19:45.631Z,102555.16
2023-04-19T19:22:25.071Z,102556.91
2023-04-19T19:24:55.143Z,102563.06
2023-04-19T19:27:22.095Z,102556.47
2023-04-19T19:29:49.020Z,102564.69
2023-04-19T19:32:16.158Z,102571.66
2023-04-19T19:34:54.892Z,102565.34
2023-04-19T19:37:23.434Z,102578.31
2023-04-19T19:39:50.617Z,102585.25
2023-04-19T19:42:19.304Z,102585.97
2023-04-19T19:44:46.274Z,102591.59
2023-04-19T19:47:13.572Z,102585.72
2023-04-19T19:49:57.642Z,102589.25
2023-04-19T19:52:28.387Z,102587.13
2023-04-19T19:54:55.219Z,102593.84
2023-04-19T19:58:10.323Z,102592.19
2023-04-19T20:02:54.252Z,102598.34
2023-04-19T20:05:24.079Z,102604.50
2023-04-19T20:10:21.060Z,102616.72
2023-04-19T20:12:48.062Z,102621.63
2023-04-19T20:15:15.017Z,102619.03
2023-04-19T20:17:41.921Z,102618.78
2023-04-19T20:20:11.295Z,102617.09
2023-04-19T20:22:38.727Z,102617.25
2023-04-19T20:25:05.960Z,102618.16
2023-04-19T20:27:33.502Z,102620.44
2023-04-19T20:30:01.094Z,102625.88
2023-04-19T20:32:28.139Z,102636.22
2023-04-19T20:34:55.063Z,102633.03
2023-04-19T20:37:22.623Z,102636.56
2023-04-19T20:39:49.617Z,102631.25
2023-04-19T20:42:16.951Z,102633.19
2023-04-19T20:44:43.796Z,102634.09
2023-04-19T20:47:13.077Z,102633.41
2023-04-19T20:49:40.054Z,102634.34
2023-04-19T20:52:06.857Z,102629.56
2023-04-19T20:54:35.210Z,102621.66
2023-04-19T20:57:03.220Z,102634.91
2023-04-19T20:59:30.072Z,102626.97
2023-04-19T21:01:57.345Z,102626.16
2023-04-19T21:04:24.341Z,102627.41
2023-04-19T21:06:51.366Z,102633.03
2023-04-19T21:09:18.390Z,102625.91
2023-04-19T21:11:45.627Z,102617.19
2023-04-19T21:14:12.514Z,102625.69
2023-04-19T21:16:39.396Z,102625.56
2023-04-19T21:19:06.226Z,102628.84
2023-04-19T21:21:33.020Z,102624.31
2023-04-19T21:23:59.882Z,102629.63
2023-04-19T21:26:27.050Z,102637.28
2023-04-19T21:28:53.842Z,102634.91
2023-04-19T21:31:20.693Z,102621.31
2023-04-19T21:33:47.521Z,102625.38
2023-04-19T21:36:14.327Z,102622.69
2023-04-19T21:38:41.118Z,102627.97
2023-04-19T21:41:08.335Z,102624.47
2023-04-19T21:43:35.123Z,102622.28
2023-04-19T21:46:04.890Z,102625.91
2023-04-19T21:48:32.128Z,102629.63
2023-04-19T21:50:59.991Z,102615.78
2023-04-19T21:53:26.860Z,102616.25
2023-04-19T21:55:53.745Z,102624.25
2023-04-19T21:58:20.531Z,102619.72
2023-04-19T22:00:48.702Z,102610.00
2023-04-19T22:03:15.849Z,102619.25
2023-04-19T22:05:43.348Z,102618.44
2023-04-19T22:08:10.637Z,102617.28
2023-04-19T22:10:37.867Z,102620.56
2023-04-19T22:13:05.143Z,102624.81
2023-04-19T22:15:31.989Z,102618.25
2023-04-19T22:17:58.827Z,102619.94
2023-04-19T22:20:28.561Z,102630.19
2023-04-19T22:22:55.961Z,102616.03
2023-04-19T22:25:22.737Z,102624.47
2023-04-19T22:27:49.568Z,102617.47
2023-04-19T22:30:16.585Z,102617.34
2023-04-19T22:32:43.407Z,102621.38
2023-04-19T22:35:10.321Z,102622.81
2023-04-19T22:37:37.143Z,102623.47
2023-04-19T22:40:07.042Z,102617.91
2023-04-19T22:42:33.960Z,102611.56
2023-04-19T22:45:00.857Z,102615.16
2023-04-19T22:47:27.746Z,102615.59
2023-04-19T22:49:54.594Z,102618.19
2023-04-19T22:52:21.382Z,102629.00
2023-04-19T22:54:48.127Z,102614.06
2023-04-19T22:57:14.927Z,102620.50
2023-04-19T22:59:41.724Z,102624.88
2023-04-19T23:02:08.730Z,102617.09
2023-04-19T23:04:35.743Z,102618.91
2023-04-19T23:07:04.018Z,102616.31
2023-04-19T23:09:30.935Z,102619.34
2023-04-19T23:12:00.976Z,102611.97
2023-04-19T23:14:29.295Z,102612.38
2023-04-19T23:16:57.268Z,102604.81
2023-04-19T23:19:25.463Z,102603.44
2023-04-19T23:21:52.244Z,102609.84
2023-04-19T23:24:19.703Z,102602.72
2023-04-19T23:26:46.538Z,102602.13
2023-04-19T23:29:13.274Z,102597.59
2023-04-19T23:31:40.184Z,102602.19
2023-04-19T23:34:07.113Z,102602.03
2023-04-19T23:36:33.928Z,102595.69
2023-04-19T23:39:00.776Z,102585.69
2023-04-19T23:41:27.667Z,102587.38
2023-04-19T23:43:54.419Z,102576.59
2023-04-19T23:46:21.573Z,102579.22
2023-04-19T23:48:48.350Z,102573.84
2023-04-19T23:51:15.146Z,102578.06
2023-04-19T23:53:41.952Z,102562.16
2023-04-19T23:56:08.803Z,102567.97
2023-04-19T23:58:35.648Z,102565.97
